createdAt,value
2022-10-07T00:04:54.459Z,96.86
2022-10-07T00:09:56.005Z,97.25
2022-10-07T00:14:57.758Z,97.85
2022-10-07T00:19:59.275Z,98.80
2022-10-07T00:25:00.799Z,97.70
2022-10-07T00:30:02.366Z,97.84
2022-10-07T00:35:04.213Z,99.20
2022-10-07T00:40:06.120Z,99.71
2022-10-07T00:45:16.689Z,99.79
2022-10-07T00:50:26.578Z,99.48
2022-10-07T00:55:30.068Z,99.21
2022-10-07T01:00:31.875Z,98.80
2022-10-07T01:05:33.454Z,97.16
2022-10-07T01:11:13.942Z,98.22
2022-10-07T01:16:24.663Z,98.65
2022-10-07T01:21:34.422Z,99.37
2022-10-07T01:26:45.333Z,99.93
2022-10-07T01:31:59.191Z,99.41
2022-10-07T01:37:04.652Z,100.00
2022-10-07T01:42:06.498Z,96.35
2022-10-07T01:47:08.175Z,99.34
2022-10-07T01:52:43.236Z,100.00
2022-10-07T01:58:11.422Z,100.00
2022-10-07T02:03:59.983Z,98.68
2022-10-07T02:09:11.619Z,98.36
2022-10-07T02:14:25.013Z,96.84
2022-10-07T02:19:32.336Z,99.05
2022-10-07T02:24:35.563Z,100.00
2022-10-07T02:29:42.894Z,100.00
2022-10-07T02:34:48.936Z,100.00
2022-10-07T02:39:51.999Z,99.09
2022-10-07T02:45:06.286Z,100.00
2022-10-07T02:50:12.870Z,100.00
2022-10-07T02:55:22.394Z,100.00
2022-10-07T03:00:24.611Z,99.40
2022-10-07T03:05:28.499Z,99.07
2022-10-07T03:10:34.977Z,99.27
2022-10-07T03:15:42.118Z,99.74
2022-10-07T03:20:45.463Z,100.00
2022-10-07T03:25:55.076Z,100.00
2022-10-07T03:31:06.980Z,100.00
2022-10-07T03:36:10.213Z,100.00
2022-10-07T03:41:15.309Z,100.00
2022-10-07T03:46:19.546Z,100.00
2022-10-07T03:51:22.028Z,100.00
2022-10-07T03:56:24.901Z,100.00
2022-10-07T04:01:26.730Z,100.00
2022-10-07T04:06:32.395Z,100.00
2022-10-07T04:11:40.549Z,100.00
2022-10-07T04:16:43.082Z,100.00
2022-10-07T04:21:47.150Z,100.00
2022-10-07T04:26:50.322Z,100.00
2022-10-07T04:31:52.191Z,100.00
2022-10-07T04:36:54.472Z,100.00
2022-10-07T04:41:56.955Z,100.00
2022-10-07T04:47:05.514Z,100.00
2022-10-07T04:52:07.949Z,100.00
2022-10-07T04:57:15.802Z,100.00
2022-10-07T05:02:19.493Z,100.00
2022-10-07T05:07:21.743Z,100.00
2022-10-07T05:12:25.961Z,100.00
2022-10-07T05:17:28.473Z,100.00
2022-10-07T05:22:31.448Z,100.00
2022-10-07T05:27:33.681Z,100.00
2022-10-07T05:32:35.303Z,100.00
2022-10-07T05:37:38.077Z,100.00
2022-10-07T05:42:40.058Z,100.00
2022-10-07T05:47:43.151Z,100.00
2022-10-07T05:52:45.504Z,100.00
2022-10-07T05:57:49.433Z,100.00
2022-10-07T06:02:51.965Z,100.00
2022-10-07T06:07:53.650Z,100.00
2022-10-07T06:13:07.469Z,100.00
2022-10-07T06:18:10.364Z,100.00
2022-10-07T06:23:13.250Z,100.00
2022-10-07T06:28:17.714Z,100.00
2022-10-07T06:33:20.317Z,100.00
2022-10-07T06:38:24.047Z,100.00
2022-10-07T06:43:27.024Z,100.00
2022-10-07T06:48:41.394Z,100.00
2022-10-07T06:53:44.302Z,100.00
2022-10-07T06:58:46.845Z,100.00
2022-10-07T07:03:51.529Z,99.42
2022-10-07T07:08:55.944Z,98.83
2022-10-07T07:13:58.522Z,98.68
2022-10-07T07:19:04.095Z,98.04
2022-10-07T07:24:07.677Z,98.20
2022-10-07T07:29:12.172Z,95.57
2022-10-07T07:34:19.524Z,95.31
2022-10-07T07:39:21.935Z,94.97
2022-10-07T07:44:43.657Z,93.26
2022-10-07T07:49:50.356Z,91.94
2022-10-07T07:54:59.165Z,92.34
2022-10-07T08:00:01.756Z,90.05
2022-10-07T08:05:04.915Z,87.61
2022-10-07T08:10:07.095Z,86.61
2022-10-07T08:15:10.827Z,87.64
2022-10-07T08:20:14.912Z,85.40
2022-10-07T08:25:16.843Z,84.63
2022-10-07T08:30:19.567Z,83.63
2022-10-07T08:35:22.521Z,83.12
2022-10-07T08:40:24.042Z,86.39
2022-10-07T08:45:31.937Z,85.64
2022-10-07T08:51:05.119Z,82.42
2022-10-07T08:56:13.997Z,82.58
2022-10-07T09:01:34.285Z,79.53
2022-10-07T09:06:45.520Z,79.44
2022-10-07T09:11:49.604Z,75.32
2022-10-07T09:16:55.032Z,75.54
2022-10-07T09:22:03.484Z,71.33
2022-10-07T09:27:13.625Z,68.85
2022-10-07T09:32:18.748Z,67.94
2022-10-07T09:37:26.183Z,67.49
2022-10-07T09:42:33.626Z,63.31
2022-10-07T09:47:40.295Z,62.04
2022-10-07T09:52:54.664Z,62.39
2022-10-07T09:58:01.591Z,60.13
2022-10-07T10:03:07.759Z,58.54
2022-10-07T10:08:18.221Z,55.65
2022-10-07T10:13:36.599Z,54.58
2022-10-07T10:18:40.657Z,51.02
2022-10-07T10:23:53.770Z,53.01
2022-10-07T10:29:22.914Z,51.92
2022-10-07T10:34:54.143Z,51.78
2022-10-07T10:40:29.574Z,50.07
2022-10-07T10:45:49.103Z,48.08
2022-10-07T10:51:14.534Z,48.55
2022-10-07T10:56:42.474Z,47.02
2022-10-07T11:01:46.372Z,47.95
2022-10-07T11:06:58.548Z,47.77
2022-10-07T11:12:05.230Z,49.03
2022-10-07T11:17:10.167Z,47.37
2022-10-07T11:22:31.103Z,46.83
2022-10-07T11:27:35.041Z,49.74
2022-10-07T11:33:05.310Z,47.33
2022-10-07T11:38:15.778Z,46.73
2022-10-07T11:43:26.307Z,46.35
2022-10-07T11:48:40.981Z,47.13
2022-10-07T11:53:44.448Z,47.22
2022-10-07T11:58:48.776Z,45.93
2022-10-07T12:03:51.340Z,47.36
2022-10-07T12:08:53.809Z,48.37
2022-10-07T12:14:15.615Z,47.80
2022-10-07T12:19:23.466Z,50.16
2022-10-07T12:24:27.162Z,49.56
2022-10-07T12:29:44.580Z,51.55
2022-10-07T12:34:47.397Z,50.64
2022-10-07T12:39:49.033Z,49.55
2022-10-07T12:44:52.885Z,48.51
2022-10-07T12:50:07.327Z,50.00
2022-10-07T12:55:16.284Z,50.36
2022-10-07T13:00:24.515Z,50.83
2022-10-07T13:06:00.321Z,50.59
2022-10-07T13:11:42.189Z,50.50
2022-10-07T13:17:10.453Z,51.24
2022-10-07T13:22:19.448Z,51.14
2022-10-07T13:27:26.835Z,50.93
2022-10-07T13:32:35.596Z,51.75
2022-10-07T13:37:38.298Z,51.86
2022-10-07T13:42:39.904Z,53.01
2022-10-07T13:47:45.134Z,51.83
2022-10-07T13:52:49.850Z,49.58
2022-10-07T13:57:52.499Z,48.59
2022-10-07T14:02:54.542Z,48.69
2022-10-07T14:08:10.999Z,48.26
2022-10-07T14:13:15.355Z,49.31
2022-10-07T14:18:17.771Z,49.83
2022-10-07T14:23:28.382Z,51.12
2022-10-07T14:28:35.370Z,51.26
2022-10-07T14:34:13.962Z,51.71
2022-10-07T14:39:29.684Z,50.19
2022-10-07T14:44:31.856Z,52.01
2022-10-07T14:49:33.400Z,52.10
2022-10-07T14:54:35.175Z,53.47
2022-10-07T14:59:37.896Z,54.50
2022-10-07T15:04:40.369Z,55.40
2022-10-07T15:09:43.814Z,54.79
2022-10-07T15:14:45.422Z,56.32
2022-10-07T15:19:47.089Z,57.11
2022-10-07T15:24:48.920Z,57.59
2022-10-07T15:29:53.770Z,59.24
2022-10-07T15:34:55.610Z,61.52
2022-10-07T15:39:58.733Z,62.22
2022-10-07T15:45:00.466Z,62.53
2022-10-07T15:50:02.272Z,61.92
2022-10-07T15:55:07.805Z,62.32
2022-10-07T16:00:10.752Z,62.93
2022-10-07T16:05:15.054Z,64.74
2022-10-07T16:10:16.726Z,66.45
2022-10-07T16:15:18.285Z,66.41
2022-10-07T16:20:20.597Z,67.54
2022-10-07T16:25:22.133Z,71.61
2022-10-07T16:30:42.148Z,74.80
2022-10-07T16:35:43.759Z,75.63
2022-10-07T16:40:54.671Z,74.91
2022-10-07T16:46:02.055Z,75.72
2022-10-07T16:51:04.154Z,74.91
2022-10-07T16:56:06.408Z,74.95
2022-10-07T17:01:13.695Z,74.82
2022-10-07T17:06:17.994Z,75.68
2022-10-07T17:11:31.255Z,76.21
2022-10-07T17:16:38.495Z,77.52
2022-10-07T17:21:41.990Z,78.38
2022-10-07T17:26:44.703Z,78.73
2022-10-07T17:31:50.487Z,79.86
2022-10-07T17:36:52.679Z,80.61
2022-10-07T17:41:54.374Z,81.51
2022-10-07T17:46:58.923Z,81.83
2022-10-07T17:52:00.552Z,82.89
2022-10-07T17:57:02.757Z,83.99
2022-10-07T18:02:05.343Z,84.35
2022-10-07T18:07:06.880Z,86.95
2022-10-07T18:12:27.079Z,84.99
2022-10-07T18:17:28.610Z,85.59
2022-10-07T18:22:30.138Z,87.39
2022-10-07T18:27:31.755Z,88.22
2022-10-07T18:32:33.645Z,88.61
2022-10-07T18:37:36.117Z,88.75
2022-10-07T18:42:38.455Z,90.39
2022-10-07T18:47:39.988Z,90.88
2022-10-07T18:52:41.630Z,91.28
2022-10-07T18:57:43.420Z,91.79
2022-10-07T19:02:46.130Z,92.26
2022-10-07T19:07:48.596Z,92.74
2022-10-07T19:13:09.324Z,94.15
2022-10-07T19:18:11.076Z,92.53
2022-10-07T19:23:12.732Z,94.16
2022-10-07T19:28:14.489Z,95.06
2022-10-07T19:33:16.750Z,94.79
2022-10-07T19:38:18.459Z,94.84
2022-10-07T19:43:20.012Z,96.10
2022-10-07T19:48:22.147Z,96.62
2022-10-07T19:53:23.684Z,96.79
2022-10-07T19:58:27.037Z,97.24
2022-10-07T20:03:28.657Z,97.85
2022-10-07T20:08:32.451Z,99.06
2022-10-07T20:13:35.820Z,100.00
2022-10-07T20:18:38.687Z,100.00
2022-10-07T20:23:45.753Z,100.00
2022-10-07T20:28:50.047Z,100.00
2022-10-07T20:33:54.543Z,100.00
2022-10-07T20:39:18.366Z,100.00
2022-10-07T20:44:22.977Z,100.00
2022-10-07T20:49:28.419Z,100.00
2022-10-07T20:54:31.270Z,100.00
2022-10-07T20:59:33.413Z,100.00
2022-10-07T21:04:34.918Z,100.00
2022-10-07T21:09:36.698Z,100.00
2022-10-07T21:14:38.414Z,100.00
2022-10-07T21:19:40.205Z,100.00
2022-10-07T21:24:41.846Z,100.00
2022-10-07T21:29:47.966Z,100.00
2022-10-07T21:34:51.274Z,100.00
2022-10-07T21:39:52.784Z,100.00
2022-10-07T21:44:54.330Z,100.00
2022-10-07T21:49:56.872Z,100.00
2022-10-07T21:54:58.424Z,100.00
2022-10-07T21:59:59.919Z,100.00
2022-10-07T22:05:01.497Z,100.00
2022-10-07T22:10:03.311Z,100.00
2022-10-07T22:15:05.317Z,100.00
2022-10-07T22:20:08.272Z,100.00
2022-10-07T22:25:09.796Z,100.00
2022-10-07T22:30:11.834Z,100.00
2022-10-07T22:35:30.141Z,100.00
2022-10-07T22:40:31.685Z,100.00
2022-10-07T22:45:33.829Z,100.00
2022-10-07T22:50:36.191Z,100.00
2022-10-07T22:55:37.683Z,100.00
2022-10-07T23:00:39.200Z,100.00
2022-10-07T23:05:40.770Z,100.00
2022-10-07T23:10:42.931Z,100.00
2022-10-07T23:15:46.685Z,100.00
2022-10-07T23:20:48.736Z,100.00
2022-10-07T23:25:51.812Z,100.00
2022-10-07T23:30:53.462Z,100.00
2022-10-07T23:35:57.099Z,100.00
2022-10-07T23:40:59.202Z,100.00
2022-10-07T23:46:01.687Z,100.00
2022-10-07T23:51:04.630Z,100.00
2022-10-07T23:56:06.921Z,100.00
